This is the latest recevied weather packets stored in our database for station/object KE4AMH. If no packets are shown the sender has not sent any weather packets the latest 10 day(s).
| Time | Temp. | Humidity | Pressure | Rain* | Wind** | Luminosity | Snow |
|---|---|---|---|---|---|---|---|
| 1778085529 | 23.33° C | 75% | 1014.4 hPa | 0 mm | - | 165 W/m² | - |
| 1778085224 | 23.33° C | 75% | 1014.9 hPa | 0 mm | - | 215 W/m² | - |
| 1778084919 | 22.78° C | 75% | 1015.9 hPa | 0 mm | - | 65 W/m² | - |
| 1778084618 | 22.78° C | 76% | 1015.7 hPa | 0 mm | - | 130 W/m² | - |
| 1778084315 | 22.78° C | 75% | 1015.7 hPa | 0 mm | - | 106 W/m² | - |
| 1778084012 | 23.33° C | 73% | 1015.8 hPa | 0 mm | - | 91 W/m² | - |
| 1778083709 | 23.89° C | 73% | 1015.6 hPa | 0 mm | - | 251 W/m² | - |
| 1778083406 | 24.44° C | 72% | 1015.2 hPa | 0 mm | - | 651 W/m² | - |
| 1778083105 | 23.33° C | 73% | 1015.4 hPa | 0 mm | - | 175 W/m² | - |
| 1778082801 | 23.33° C | 73% | 1015.3 hPa | 0 mm | - | 396 W/m² | - |
| 1778081674 | 22.78° C | 74% | 1015.1 hPa | 0 mm | - | 358 W/m² | - |
| 1778081371 | 22.22° C | 75% | 1015.2 hPa | 0 mm | - | 300 W/m² | - |
| 1778081068 | 22.22° C | 75% | 1015.2 hPa | 0 mm | - | 307 W/m² | - |
| 1778080766 | 22.22° C | 77% | 1015 hPa | 0 mm | - | 318 W/m² | - |
| 1778080463 | 22.22° C | 77% | 1015.1 hPa | 0 mm | - | 361 W/m² | - |
| 1778080161 | 21.67° C | 77% | 1015.4 hPa | 0 mm | - | 388 W/m² | - |
| 1778079856 | 21.67° C | 78% | 1015 hPa | 0 mm | - | 235 W/m² | - |
| 1778079554 | 21.11° C | 79% | 1015.1 hPa | 0 mm | - | 149 W/m² | - |
| 1778079250 | 21.67° C | 78% | 1015.2 hPa | 0 mm | - | 127 W/m² | - |
| 1778078948 | 21.67° C | 78% | 1014.9 hPa | 0 mm | - | 220 W/m² | - |
| 1778078644 | 21.11° C | 79% | 1014.9 hPa | 0 mm | - | 218 W/m² | - |
| 1778078343 | 21.11° C | 79% | 1014.7 hPa | 0 mm | - | 199 W/m² | - |
| 1778078039 | 20.56° C | 79% | 1015.1 hPa | 0 mm | - | 174 W/m² | - |
| 1778077737 | 20.56° C | 80% | 1015.1 hPa | 0 mm | - | 164 W/m² | - |
| 1778077435 | 20.56° C | 80% | 1014.5 hPa | 0 mm | - | 161 W/m² | - |
* Rain latest hour (hover to see other rain measurements)
** Current wind speed in m/s (hover to see current wind gust speed)